createdAt,value
2018-04-29T00:02:17.682Z,69.93
2018-04-29T00:04:46.629Z,70.07
2018-04-29T00:07:15.047Z,70.18
2018-04-29T00:09:43.553Z,70.30
2018-04-29T00:12:12.958Z,70.33
2018-04-29T00:14:41.693Z,70.30
2018-04-29T00:17:17.530Z,70.28
2018-04-29T00:19:46.295Z,70.27
2018-04-29T00:22:15.568Z,70.26
2018-04-29T00:27:18.780Z,70.47
2018-04-29T00:29:47.418Z,70.59
2018-04-29T00:32:16.729Z,70.59
2018-04-29T00:34:45.501Z,70.59
2018-04-29T00:37:13.999Z,70.38
2018-04-29T00:39:42.535Z,70.36
2018-04-29T00:42:12.206Z,70.31
2018-04-29T00:44:40.588Z,70.19
2018-04-29T00:47:09.370Z,70.10
2018-04-29T00:49:37.783Z,69.99
2018-04-29T00:52:07.022Z,69.92
2018-04-29T00:54:36.474Z,69.90
2018-04-29T00:57:05.183Z,69.97
2018-04-29T00:59:33.560Z,70.05
2018-04-29T01:02:02.048Z,70.08
2018-04-29T01:04:31.172Z,70.08
2018-04-29T01:07:00.157Z,70.10
2018-04-29T01:09:28.828Z,70.09
2018-04-29T01:11:58.511Z,70.12
2018-04-29T01:14:27.165Z,70.07
2018-04-29T01:16:55.973Z,69.98
2018-04-29T01:19:24.867Z,69.93
2018-04-29T01:21:53.966Z,69.80
2018-04-29T01:24:22.436Z,69.71
2018-04-29T01:26:50.811Z,69.61
2018-04-29T01:29:19.240Z,69.68
2018-04-29T01:31:47.917Z,69.68
2018-04-29T01:34:17.248Z,69.55
2018-04-29T01:36:46.824Z,69.34
2018-04-29T01:39:15.590Z,69.26
2018-04-29T01:41:43.947Z,69.20
2018-04-29T01:44:12.315Z,69.13
2018-04-29T01:46:41.860Z,69.17
2018-04-29T01:49:10.233Z,69.14
2018-04-29T01:51:38.911Z,69.08
2018-04-29T01:54:07.730Z,69.06
2018-04-29T01:56:37.228Z,69.03
2018-04-29T01:59:05.948Z,69.07
2018-04-29T02:01:34.554Z,69.07
2018-04-29T02:04:04.613Z,69.06
2018-04-29T02:06:33.043Z,69.05
2018-04-29T02:09:01.400Z,69.06
2018-04-29T02:11:30.280Z,69.08
2018-04-29T02:13:58.704Z,69.02
2018-04-29T02:16:27.671Z,68.90
2018-04-29T02:18:56.478Z,68.80
2018-04-29T02:21:25.019Z,68.73
2018-04-29T02:23:53.408Z,68.60
2018-04-29T02:26:23.151Z,68.49
2018-04-29T02:28:51.675Z,68.39
2018-04-29T02:31:20.132Z,68.26
2018-04-29T02:33:48.626Z,68.18
2018-04-29T02:36:17.081Z,68.16
2018-04-29T02:38:45.448Z,67.91
2018-04-29T02:41:13.939Z,67.82
2018-04-29T02:43:42.823Z,67.27
2018-04-29T02:46:12.004Z,66.50
2018-04-29T02:48:40.366Z,65.69
2018-04-29T02:51:08.800Z,65.14
2018-04-29T02:53:37.581Z,64.69
2018-04-29T02:56:07.341Z,64.31
2018-04-29T02:58:36.085Z,64.21
2018-04-29T03:01:04.676Z,64.06
2018-04-29T03:03:33.190Z,64.11
2018-04-29T03:06:02.687Z,64.09
2018-04-29T03:08:31.969Z,64.22
2018-04-29T03:11:00.913Z,64.02
2018-04-29T03:13:29.371Z,63.54
2018-04-29T03:15:58.120Z,63.01
2018-04-29T03:18:27.064Z,62.54
2018-04-29T03:20:55.727Z,62.25
2018-04-29T03:23:24.392Z,61.79
2018-04-29T03:25:53.243Z,61.45
2018-04-29T03:28:22.781Z,61.24
2018-04-29T03:30:51.876Z,60.83
2018-04-29T03:33:20.288Z,60.57
2018-04-29T03:35:48.983Z,60.34
2018-04-29T03:38:17.335Z,60.13
2018-04-29T03:40:47.252Z,59.84
2018-04-29T03:43:15.748Z,59.82
2018-04-29T03:45:44.831Z,59.64
2018-04-29T03:48:14.678Z,59.40
2018-04-29T03:50:43.725Z,59.27
2018-04-29T03:53:12.090Z,58.97
2018-04-29T03:55:40.575Z,58.88
2018-04-29T03:58:21.175Z,58.77
2018-04-29T04:01:01.495Z,58.64
2018-04-29T04:03:41.999Z,58.49
2018-04-29T04:06:10.391Z,58.53
2018-04-29T04:08:38.871Z,58.28
2018-04-29T04:11:07.229Z,58.16
2018-04-29T04:13:35.901Z,57.95
2018-04-29T04:16:05.357Z,58.00
2018-04-29T04:18:33.712Z,57.75
2018-04-29T04:21:02.230Z,57.55
2018-04-29T04:23:31.070Z,57.43
2018-04-29T04:25:59.784Z,57.49
2018-04-29T04:28:28.542Z,57.44
2018-04-29T04:30:57.401Z,57.36
2018-04-29T04:33:26.169Z,57.36
2018-04-29T04:35:54.913Z,57.01
2018-04-29T04:38:23.594Z,57.16
2018-04-29T04:40:52.473Z,57.09
2018-04-29T04:43:22.437Z,56.89
2018-04-29T04:45:50.807Z,56.83
2018-04-29T04:48:19.664Z,56.45
2018-04-29T04:50:48.367Z,56.52
2018-04-29T04:53:16.934Z,56.32
2018-04-29T04:55:46.080Z,56.11
2018-04-29T04:58:14.651Z,56.04
2018-04-29T05:00:43.456Z,55.78
2018-04-29T05:03:12.364Z,55.51
2018-04-29T05:05:40.747Z,55.39
2018-04-29T05:08:09.115Z,55.18
2018-04-29T05:10:37.495Z,54.99
2018-04-29T05:13:05.891Z,54.64
2018-04-29T05:15:34.253Z,54.63
2018-04-29T05:18:03.071Z,54.38
2018-04-29T05:20:31.805Z,54.30
2018-04-29T05:23:00.533Z,54.03
2018-04-29T05:25:30.173Z,53.89
2018-04-29T05:27:59.614Z,53.76
2018-04-29T05:30:28.268Z,53.46
2018-04-29T05:32:56.704Z,53.30
2018-04-29T05:35:25.936Z,53.06
2018-04-29T05:37:54.810Z,52.95
2018-04-29T05:40:24.442Z,52.91
2018-04-29T05:42:52.819Z,52.73
2018-04-29T05:45:21.854Z,52.66
2018-04-29T05:47:50.352Z,52.29
2018-04-29T05:50:20.197Z,52.39
2018-04-29T05:52:48.886Z,52.48
2018-04-29T05:55:17.627Z,52.49
2018-04-29T05:57:45.987Z,52.47
2018-04-29T06:00:14.465Z,52.48
2018-04-29T06:02:43.059Z,52.36
2018-04-29T06:05:12.172Z,52.33
2018-04-29T06:07:40.526Z,52.17
2018-04-29T06:10:08.935Z,52.10
2018-04-29T06:12:38.484Z,52.14
2018-04-29T06:15:07.494Z,52.24
2018-04-29T06:17:36.641Z,52.50
2018-04-29T06:20:05.354Z,52.19
2018-04-29T06:22:34.506Z,51.95
2018-04-29T06:25:02.882Z,51.92
2018-04-29T06:27:33.637Z,51.82
2018-04-29T06:30:02.038Z,51.94
2018-04-29T06:32:30.399Z,52.08
2018-04-29T06:34:58.772Z,52.04
2018-04-29T06:37:28.824Z,51.96
2018-04-29T06:39:57.187Z,51.94
2018-04-29T06:42:26.004Z,52.02
2018-04-29T06:44:55.161Z,51.89
2018-04-29T06:47:24.493Z,51.74
2018-04-29T06:49:52.884Z,51.74
2018-04-29T06:52:21.480Z,51.74
2018-04-29T06:54:49.878Z,51.55
2018-04-29T06:57:19.420Z,51.48
2018-04-29T06:59:47.810Z,51.47
2018-04-29T07:02:16.301Z,51.51
2018-04-29T07:04:44.707Z,51.46
2018-04-29T07:07:13.602Z,51.38
2018-04-29T07:09:43.007Z,51.48
2018-04-29T07:12:11.433Z,51.36
2018-04-29T07:14:40.110Z,51.28
2018-04-29T07:17:08.987Z,51.22
2018-04-29T07:19:37.708Z,51.14
2018-04-29T07:22:06.145Z,51.13
2018-04-29T07:24:34.542Z,51.10
2018-04-29T07:27:03.913Z,51.13
2018-04-29T07:29:32.949Z,51.05
2018-04-29T07:32:01.482Z,50.91
2018-04-29T07:34:29.905Z,50.86
2018-04-29T07:36:58.650Z,50.77
2018-04-29T07:39:27.011Z,50.58
2018-04-29T07:41:55.627Z,50.49
2018-04-29T07:44:24.010Z,50.46
2018-04-29T07:46:52.598Z,50.37
2018-04-29T07:49:21.081Z,50.16
2018-04-29T07:51:50.088Z,50.22
2018-04-29T07:54:19.637Z,50.07
2018-04-29T07:56:48.303Z,49.74
2018-04-29T07:59:16.655Z,49.72
2018-04-29T08:01:45.388Z,49.74
2018-04-29T08:04:13.870Z,49.59
2018-04-29T08:06:42.271Z,49.71
2018-04-29T08:09:11.006Z,49.65
2018-04-29T08:11:39.455Z,49.48
2018-04-29T08:14:10.271Z,49.20
2018-04-29T08:16:38.631Z,48.95
2018-04-29T08:19:07.210Z,48.76
2018-04-29T08:21:36.391Z,48.51
2018-04-29T08:24:05.587Z,48.57
2018-04-29T08:26:34.238Z,48.44
2018-04-29T08:29:03.145Z,48.50
2018-04-29T08:31:31.500Z,48.22
2018-04-29T08:34:00.523Z,48.12
2018-04-29T08:36:29.191Z,47.98
2018-04-29T08:38:57.664Z,47.97
2018-04-29T08:41:26.693Z,48.00
2018-04-29T08:43:55.287Z,47.97
2018-04-29T08:46:24.345Z,47.85
2018-04-29T08:48:53.010Z,47.54
2018-04-29T08:51:21.836Z,47.69
2018-04-29T08:53:51.052Z,47.41
2018-04-29T08:56:19.511Z,47.40
2018-04-29T08:58:47.907Z,47.32
2018-04-29T09:01:16.513Z,46.91
2018-04-29T09:03:45.416Z,46.87
2018-04-29T09:06:14.195Z,46.50
2018-04-29T09:08:42.645Z,46.04
2018-04-29T09:11:12.027Z,45.70
2018-04-29T09:13:40.431Z,45.58
2018-04-29T09:16:08.807Z,45.53
2018-04-29T09:18:37.677Z,45.31
2018-04-29T09:21:06.512Z,44.99
2018-04-29T09:23:35.599Z,45.06
2018-04-29T09:26:03.962Z,44.70
2018-04-29T09:28:32.321Z,44.75
2018-04-29T09:31:01.102Z,44.75
2018-04-29T09:33:29.602Z,44.62
2018-04-29T09:35:57.977Z,44.29
2018-04-29T09:38:26.590Z,43.84
2018-04-29T09:40:55.625Z,43.60
2018-04-29T09:43:23.974Z,43.33
2018-04-29T09:45:52.327Z,43.06
2018-04-29T09:48:20.871Z,42.96
2018-04-29T09:50:49.241Z,43.01
2018-04-29T09:53:18.105Z,42.84
2018-04-29T09:55:47.014Z,42.17
2018-04-29T09:58:15.704Z,42.16
2018-04-29T10:00:50.577Z,41.91
2018-04-29T10:03:19.945Z,41.82
2018-04-29T10:05:48.797Z,41.56
2018-04-29T10:08:17.485Z,41.41
2018-04-29T10:10:46.297Z,41.37
2018-04-29T10:13:14.969Z,41.30
2018-04-29T10:15:55.610Z,41.21
2018-04-29T10:18:23.968Z,40.88
2018-04-29T10:20:52.337Z,40.55
2018-04-29T10:23:20.827Z,40.56
2018-04-29T10:25:49.322Z,40.43
2018-04-29T10:28:17.776Z,40.19
2018-04-29T10:32:20.558Z,40.18
2018-04-29T10:34:48.985Z,40.10
2018-04-29T10:37:17.406Z,39.68
2018-04-29T10:39:46.162Z,39.47
2018-04-29T10:42:14.776Z,39.56
2018-04-29T10:44:43.405Z,39.42
2018-04-29T10:47:11.850Z,39.52
2018-04-29T10:49:40.686Z,39.45
2018-04-29T10:52:09.076Z,39.45
2018-04-29T10:54:37.895Z,39.52
2018-04-29T10:57:06.416Z,39.71
2018-04-29T10:59:34.800Z,40.10
2018-04-29T11:02:03.176Z,39.88
2018-04-29T11:04:31.834Z,39.70
2018-04-29T11:07:01.053Z,39.76
2018-04-29T11:09:29.498Z,39.59
2018-04-29T11:14:32.379Z,38.72
2018-04-29T11:17:00.764Z,38.52
2018-04-29T11:19:29.840Z,38.25
2018-04-29T11:21:59.029Z,38.18
2018-04-29T11:24:27.552Z,38.59
2018-04-29T11:26:55.902Z,38.54
2018-04-29T11:29:24.792Z,37.82
2018-04-29T11:31:54.507Z,37.75
2018-04-29T11:34:22.884Z,37.67
2018-04-29T11:36:52.321Z,37.65
2018-04-29T11:39:20.771Z,37.64
2018-04-29T11:41:49.803Z,37.45
2018-04-29T11:44:18.155Z,37.23
2018-04-29T11:46:46.695Z,37.07
2018-04-29T11:49:15.394Z,36.90
2018-04-29T11:51:45.060Z,36.99
2018-04-29T11:54:13.414Z,38.23
2018-04-29T11:56:41.881Z,37.60
2018-04-29T11:59:10.776Z,37.02
2018-04-29T12:01:39.208Z,36.79
2018-04-29T12:04:07.565Z,37.15
2018-04-29T12:06:36.417Z,37.12
2018-04-29T12:09:04.791Z,37.07
2018-04-29T12:11:33.500Z,36.80
2018-04-29T12:14:03.080Z,36.54
2018-04-29T12:16:31.492Z,36.39
2018-04-29T12:18:59.879Z,36.21
2018-04-29T12:21:28.238Z,35.96
2018-04-29T12:23:57.341Z,36.07
2018-04-29T12:26:25.706Z,35.89
2018-04-29T12:28:54.622Z,35.76
2018-04-29T12:31:23.005Z,35.93
2018-04-29T12:33:51.376Z,35.83
2018-04-29T12:36:19.737Z,35.46
2018-04-29T12:38:50.027Z,35.27
2018-04-29T12:41:18.488Z,35.45
2018-04-29T12:43:49.731Z,34.88
2018-04-29T12:46:18.995Z,34.96
2018-04-29T12:48:47.377Z,35.01
2018-04-29T12:51:16.119Z,34.60
2018-04-29T12:53:44.477Z,34.62
2018-04-29T12:56:13.440Z,34.33
2018-04-29T12:58:41.981Z,34.14
2018-04-29T13:01:10.708Z,33.86
2018-04-29T13:03:41.760Z,33.85
2018-04-29T13:06:10.496Z,33.81
2018-04-29T13:08:39.274Z,33.54
2018-04-29T13:11:08.653Z,33.56
2018-04-29T13:13:37.545Z,33.21
2018-04-29T13:16:05.912Z,33.16
2018-04-29T13:18:34.698Z,33.03
2018-04-29T13:21:03.423Z,32.75
2018-04-29T13:23:32.193Z,32.82
2018-04-29T13:26:01.725Z,32.35
2018-04-29T13:28:30.962Z,32.39
2018-04-29T13:30:59.413Z,32.60
2018-04-29T13:33:28.101Z,32.77
2018-04-29T13:35:56.978Z,32.26
2018-04-29T13:38:25.524Z,32.27
2018-04-29T13:40:53.880Z,31.92
2018-04-29T13:43:22.259Z,31.55
2018-04-29T13:45:50.956Z,31.45
2018-04-29T13:48:19.495Z,30.95
2018-04-29T13:50:47.842Z,30.25
2018-04-29T13:53:16.563Z,29.99
2018-04-29T13:55:44.925Z,29.84
2018-04-29T13:58:13.275Z,30.06
2018-04-29T14:00:41.798Z,30.21
2018-04-29T14:03:10.479Z,30.33
2018-04-29T14:05:38.861Z,30.42
2018-04-29T14:08:07.659Z,30.39
2018-04-29T14:10:37.249Z,30.16
2018-04-29T14:13:06.271Z,30.05
2018-04-29T14:15:34.853Z,29.49
2018-04-29T14:18:03.569Z,29.03
2018-04-29T14:20:32.302Z,29.08
2018-04-29T14:23:01.352Z,29.26
2018-04-29T14:25:29.763Z,29.69
2018-04-29T14:27:59.286Z,29.62
2018-04-29T14:30:27.908Z,30.19
2018-04-29T14:32:56.500Z,31.42
2018-04-29T14:35:24.878Z,32.30
2018-04-29T14:37:53.259Z,33.06
2018-04-29T14:40:21.932Z,33.59
2018-04-29T14:42:50.290Z,33.89
2018-04-29T14:45:18.777Z,33.42
2018-04-29T14:47:47.186Z,33.12
2018-04-29T14:50:15.598Z,32.67
2018-04-29T14:52:44.267Z,31.94
2018-04-29T14:55:13.147Z,31.65
2018-04-29T14:57:41.500Z,31.66
2018-04-29T15:00:10.642Z,31.28
2018-04-29T15:02:39.675Z,31.01
2018-04-29T15:05:08.048Z,30.72
2018-04-29T15:07:36.409Z,30.71
2018-04-29T15:10:04.768Z,31.07
2018-04-29T15:12:33.138Z,30.95
2018-04-29T15:15:01.805Z,30.84
2018-04-29T15:17:30.341Z,30.63
2018-04-29T15:19:59.001Z,30.16
2018-04-29T15:22:27.413Z,30.10
2018-04-29T15:24:55.862Z,29.98
2018-04-29T15:27:24.283Z,29.78
2018-04-29T15:29:52.646Z,29.68
2018-04-29T15:32:21.305Z,29.42
2018-04-29T15:34:50.531Z,29.28
2018-04-29T15:37:22.597Z,29.16
2018-04-29T15:39:52.117Z,28.98
2018-04-29T15:42:20.472Z,29.30
2018-04-29T15:44:48.851Z,29.92
2018-04-29T15:47:17.215Z,29.57
2018-04-29T15:49:46.164Z,29.49
2018-04-29T15:52:15.629Z,28.95
2018-04-29T15:54:45.341Z,29.23
2018-04-29T15:57:13.870Z,29.61
2018-04-29T15:59:42.234Z,29.70
2018-04-29T16:02:10.620Z,29.82
2018-04-29T16:04:38.973Z,29.97
2018-04-29T16:07:07.647Z,29.83
2018-04-29T16:09:36.005Z,30.00
2018-04-29T16:12:04.361Z,29.93
2018-04-29T16:14:32.749Z,30.00
2018-04-29T16:17:01.135Z,29.83
2018-04-29T16:19:29.574Z,29.52
2018-04-29T16:21:58.011Z,29.70
2018-04-29T16:24:26.401Z,29.94
2018-04-29T16:26:56.577Z,30.61
2018-04-29T16:29:24.983Z,31.28
2018-04-29T16:31:53.627Z,32.29
2018-04-29T16:34:22.257Z,32.96
2018-04-29T16:36:50.629Z,33.66
2018-04-29T16:39:19.005Z,34.31
2018-04-29T16:41:47.389Z,35.10
2018-04-29T16:44:16.368Z,35.68
2018-04-29T16:46:44.744Z,36.06
2018-04-29T16:49:13.107Z,36.59
2018-04-29T16:51:41.471Z,37.24
2018-04-29T16:54:09.880Z,37.75
2018-04-29T16:56:38.240Z,38.14
2018-04-29T16:59:06.608Z,38.69
2018-04-29T17:01:35.536Z,39.19
2018-04-29T17:04:04.283Z,39.79
2018-04-29T17:06:32.656Z,40.28
2018-04-29T17:09:01.016Z,40.59
2018-04-29T17:11:29.384Z,40.80
2018-04-29T17:13:57.776Z,41.23
2018-04-29T17:16:26.159Z,41.38
2018-04-29T17:18:54.575Z,41.57
2018-04-29T17:21:23.079Z,41.94
2018-04-29T17:23:51.445Z,42.37
2018-04-29T17:26:19.828Z,42.97
2018-04-29T17:28:48.195Z,43.28
2018-04-29T17:31:16.571Z,43.62
2018-04-29T17:33:45.889Z,43.81
2018-04-29T17:36:14.256Z,43.95
2018-04-29T17:38:43.017Z,44.32
2018-04-29T17:41:11.418Z,44.68
2018-04-29T17:43:39.795Z,45.08
2018-04-29T17:46:08.492Z,45.45
2018-04-29T17:48:36.869Z,45.74
2018-04-29T17:51:05.258Z,45.99
2018-04-29T17:53:33.704Z,46.25
2018-04-29T17:56:02.118Z,46.57
2018-04-29T17:58:30.433Z,46.82
2018-04-29T18:00:58.805Z,47.06
2018-04-29T18:03:27.509Z,47.23
2018-04-29T18:05:56.538Z,47.52
2018-04-29T18:08:25.384Z,47.81
2018-04-29T18:10:53.883Z,47.83
2018-04-29T18:13:22.661Z,48.14
2018-04-29T18:15:51.389Z,48.40
2018-04-29T18:18:19.763Z,48.92
2018-04-29T18:20:48.269Z,49.10
2018-04-29T18:23:16.865Z,49.33
2018-04-29T18:25:45.236Z,49.60
2018-04-29T18:28:13.620Z,49.99
2018-04-29T18:30:42.049Z,50.19
2018-04-29T18:33:11.420Z,50.39
2018-04-29T18:35:39.852Z,50.53
2018-04-29T18:38:08.296Z,50.62
2018-04-29T18:40:36.672Z,50.88
2018-04-29T18:43:05.244Z,51.08
2018-04-29T18:45:34.002Z,51.38
2018-04-29T18:48:02.411Z,51.57
2018-04-29T18:50:30.965Z,52.11
2018-04-29T18:53:00.278Z,52.27
2018-04-29T18:55:29.060Z,52.35
2018-04-29T18:57:57.423Z,52.44
2018-04-29T19:00:26.477Z,52.58
2018-04-29T19:02:54.865Z,52.73
2018-04-29T19:05:23.553Z,52.95
2018-04-29T19:07:51.942Z,53.13
2018-04-29T19:10:20.333Z,53.25
2018-04-29T19:12:48.726Z,53.41
2018-04-29T19:15:17.157Z,53.74
2018-04-29T19:17:46.027Z,53.87
2018-04-29T19:20:14.451Z,54.02
2018-04-29T19:22:44.225Z,54.04
2018-04-29T19:25:12.674Z,54.08
2018-04-29T19:27:41.398Z,54.20
2018-04-29T19:30:09.778Z,54.18
2018-04-29T19:32:38.915Z,54.31
2018-04-29T19:35:07.324Z,54.44
2018-04-29T19:37:36.040Z,54.64
2018-04-29T19:40:04.422Z,54.94
2018-04-29T19:42:33.060Z,55.08
2018-04-29T19:45:01.462Z,55.31
2018-04-29T19:47:31.112Z,55.40
2018-04-29T19:49:59.720Z,55.55
2018-04-29T19:52:28.599Z,55.68
2018-04-29T19:54:57.104Z,55.76
2018-04-29T19:57:25.877Z,55.81
2018-04-29T19:59:54.248Z,55.98
2018-04-29T20:02:22.608Z,56.03
2018-04-29T20:04:51.150Z,56.22
2018-04-29T20:07:19.651Z,56.28
2018-04-29T20:09:48.178Z,56.63
2018-04-29T20:12:16.876Z,56.83
2018-04-29T20:14:45.416Z,56.99
2018-04-29T20:17:14.050Z,57.16
2018-04-29T20:19:42.535Z,57.25
2018-04-29T20:22:11.002Z,57.32
2018-04-29T20:24:39.438Z,57.52
2018-04-29T20:27:08.065Z,57.67
2018-04-29T20:29:36.492Z,57.89
2018-04-29T20:32:05.061Z,58.18
2018-04-29T20:34:33.536Z,58.30
2018-04-29T20:37:02.643Z,58.42
2018-04-29T20:39:31.116Z,58.58
2018-04-29T20:41:59.558Z,58.72
2018-04-29T20:44:28.003Z,58.90
2018-04-29T20:46:56.569Z,59.11
2018-04-29T20:49:25.161Z,59.33
2018-04-29T20:51:53.579Z,59.44
2018-04-29T20:54:21.945Z,59.51
2018-04-29T20:56:50.682Z,59.68
2018-04-29T20:59:19.800Z,59.86
2018-04-29T21:01:48.197Z,60.01
2018-04-29T21:04:16.629Z,60.16
2018-04-29T21:06:45.149Z,60.40
2018-04-29T21:09:13.528Z,60.46
2018-04-29T21:11:42.207Z,60.65
2018-04-29T21:14:10.939Z,60.82
2018-04-29T21:16:39.550Z,60.80
2018-04-29T21:19:07.911Z,60.97
2018-04-29T21:21:36.649Z,61.06
2018-04-29T21:24:05.220Z,61.23
2018-04-29T21:26:33.845Z,61.37
2018-04-29T21:29:02.491Z,61.63
2018-04-29T21:31:31.283Z,61.75
2018-04-29T21:34:00.188Z,61.96
2018-04-29T21:36:28.775Z,62.12
2018-04-29T21:38:57.469Z,62.26
2018-04-29T21:41:25.898Z,62.43
2018-04-29T21:43:54.401Z,62.52
2018-04-29T21:46:22.856Z,62.58
2018-04-29T21:48:51.796Z,62.50
2018-04-29T21:51:20.193Z,62.58
2018-04-29T21:53:48.630Z,62.74
2018-04-29T21:56:17.402Z,62.77
2018-04-29T21:58:46.139Z,62.82
2018-04-29T22:01:14.653Z,62.90
2018-04-29T22:03:43.040Z,63.09
2018-04-29T22:06:11.414Z,63.16
2018-04-29T22:08:40.567Z,63.20
2018-04-29T22:11:09.824Z,63.34
2018-04-29T22:13:40.462Z,63.37
2018-04-29T22:16:09.620Z,63.43
2018-04-29T22:18:38.346Z,63.56
2018-04-29T22:21:06.852Z,63.64
2018-04-29T22:23:35.207Z,63.65
2018-04-29T22:26:04.137Z,63.72
2018-04-29T22:28:32.780Z,63.73
2018-04-29T22:31:01.310Z,63.88
2018-04-29T22:33:29.675Z,63.89
2018-04-29T22:35:58.483Z,63.95
2018-04-29T22:38:26.860Z,64.03
2018-04-29T22:40:55.378Z,64.14
2018-04-29T22:43:25.354Z,64.41
2018-04-29T22:45:55.356Z,64.59
2018-04-29T22:48:24.509Z,64.76
2018-04-29T22:50:53.276Z,65.04
2018-04-29T22:53:23.303Z,65.31
2018-04-29T22:55:51.664Z,65.44
2018-04-29T22:58:20.488Z,65.53
2018-04-29T23:00:49.118Z,65.65
2018-04-29T23:03:22.347Z,65.68
2018-04-29T23:05:50.732Z,65.82
2018-04-29T23:08:19.149Z,65.97
2018-04-29T23:13:20.209Z,66.13
2018-04-29T23:15:48.642Z,66.11
2018-04-29T23:18:17.871Z,66.14
2018-04-29T23:20:47.379Z,66.22
2018-04-29T23:23:15.883Z,66.31
2018-04-29T23:25:44.425Z,66.54
2018-04-29T23:28:13.478Z,66.65
2018-04-29T23:30:42.982Z,66.63
2018-04-29T23:33:11.488Z,66.59
2018-04-29T23:35:40.433Z,66.53
2018-04-29T23:38:09.795Z,66.68
2018-04-29T23:40:39.228Z,66.84
2018-04-29T23:43:07.613Z,67.19
2018-04-29T23:45:36.097Z,67.40
2018-04-29T23:48:04.893Z,67.26
2018-04-29T23:50:33.260Z,67.35
2018-04-29T23:53:08.836Z,67.70
2018-04-29T23:55:39.108Z,67.72
2018-04-29T23:58:07.636Z,67.72
